createdAt,value
2023-05-10T00:01:43.913Z,58.01
2023-05-10T00:04:12.031Z,58.02
2023-05-10T00:06:40.238Z,58.50
2023-05-10T00:09:08.396Z,58.97
2023-05-10T00:11:37.880Z,58.21
2023-05-10T00:14:06.237Z,58.71
2023-05-10T00:16:34.416Z,58.70
2023-05-10T00:19:02.578Z,58.51
2023-05-10T00:21:30.760Z,58.65
2023-05-10T00:23:59.072Z,58.77
2023-05-10T00:26:27.405Z,58.87
2023-05-10T00:28:57.728Z,59.13
2023-05-10T00:31:25.891Z,59.48
2023-05-10T00:33:54.034Z,59.38
2023-05-10T00:36:22.176Z,59.00
2023-05-10T00:38:50.295Z,58.68
2023-05-10T00:41:18.608Z,58.92
2023-05-10T00:43:46.706Z,58.95
2023-05-10T00:46:17.748Z,58.23
2023-05-10T00:48:46.972Z,58.25
2023-05-10T00:51:15.971Z,58.14
2023-05-10T00:53:45.841Z,58.61
2023-05-10T00:56:14.744Z,58.54
2023-05-10T00:58:43.025Z,58.42
2023-05-10T01:01:12.782Z,58.58
2023-05-10T01:03:42.668Z,58.94
2023-05-10T01:06:12.240Z,59.17
2023-05-10T01:08:41.110Z,58.35
2023-05-10T01:11:09.416Z,58.88
2023-05-10T01:13:40.800Z,59.43
2023-05-10T01:16:09.381Z,58.99
2023-05-10T01:18:42.927Z,59.51
2023-05-10T01:21:25.628Z,59.67
2023-05-10T01:24:38.955Z,59.79
2023-05-10T01:27:49.750Z,59.58
2023-05-10T01:31:14.610Z,59.36
2023-05-10T01:33:54.192Z,59.97
2023-05-10T01:36:32.039Z,60.09
2023-05-10T01:39:11.125Z,59.65
2023-05-10T01:41:49.927Z,59.88
2023-05-10T01:44:31.339Z,60.16
2023-05-10T01:47:09.507Z,60.54
2023-05-10T01:49:47.276Z,59.83
2023-05-10T01:52:21.192Z,60.23
2023-05-10T01:54:57.717Z,60.44
2023-05-10T01:57:33.283Z,60.56
2023-05-10T02:00:05.176Z,60.44
2023-05-10T02:02:38.885Z,59.98
2023-05-10T02:05:11.211Z,60.70
2023-05-10T02:07:40.282Z,60.67
2023-05-10T02:10:12.036Z,60.38
2023-05-10T02:12:45.238Z,61.02
2023-05-10T02:15:17.238Z,60.88
2023-05-10T02:17:48.200Z,61.05
2023-05-10T02:20:21.053Z,61.17
2023-05-10T02:22:52.562Z,61.27
2023-05-10T02:25:23.980Z,61.24
2023-05-10T02:27:56.089Z,61.69
2023-05-10T02:30:26.081Z,61.31
2023-05-10T02:32:55.381Z,61.05
2023-05-10T02:35:28.110Z,61.03
2023-05-10T02:37:59.181Z,61.21
2023-05-10T02:40:30.305Z,62.07
2023-05-10T02:43:02.202Z,62.24
2023-05-10T02:45:34.215Z,61.93
2023-05-10T02:48:02.622Z,62.18
2023-05-10T02:50:35.428Z,62.56
2023-05-10T02:53:11.828Z,62.25
2023-05-10T02:55:43.151Z,62.58
2023-05-10T02:58:11.357Z,62.91
2023-05-10T03:00:39.567Z,62.64
2023-05-10T03:03:07.952Z,63.18
2023-05-10T03:05:37.483Z,62.36
2023-05-10T03:08:07.101Z,62.92
2023-05-10T03:10:43.308Z,62.72
2023-05-10T03:13:30.600Z,63.14
2023-05-10T03:16:08.783Z,62.58
2023-05-10T03:18:46.718Z,62.96
2023-05-10T03:21:20.001Z,63.06
2023-05-10T03:24:00.650Z,63.33
2023-05-10T03:26:30.970Z,63.31
2023-05-10T03:29:00.942Z,62.46
2023-05-10T03:31:29.496Z,62.51
2023-05-10T03:33:57.641Z,62.99
2023-05-10T03:36:27.289Z,62.86
2023-05-10T03:38:55.575Z,63.20
2023-05-10T03:41:23.936Z,62.72
2023-05-10T03:43:52.056Z,62.86
2023-05-10T03:46:20.187Z,62.77
2023-05-10T03:48:48.353Z,62.16
2023-05-10T03:51:16.580Z,62.43
2023-05-10T03:53:46.283Z,62.41
2023-05-10T03:56:14.366Z,61.96
2023-05-10T03:58:42.469Z,61.95
2023-05-10T04:01:10.608Z,61.20
2023-05-10T04:03:39.191Z,60.16
2023-05-10T04:06:09.992Z,60.18
2023-05-10T04:08:38.101Z,59.90
2023-05-10T04:11:12.615Z,59.71
2023-05-10T04:13:40.980Z,58.96
2023-05-10T04:16:09.152Z,59.46
2023-05-10T04:18:37.451Z,59.32
2023-05-10T04:21:05.834Z,58.52
2023-05-10T04:23:33.931Z,59.20
2023-05-10T04:26:02.992Z,58.37
2023-05-10T04:28:32.516Z,59.00
2023-05-10T04:31:05.446Z,58.80
2023-05-10T04:33:34.855Z,58.61
2023-05-10T04:36:03.230Z,57.95
2023-05-10T04:38:31.836Z,57.76
2023-05-10T04:41:08.239Z,57.89
2023-05-10T04:43:38.377Z,57.64
2023-05-10T04:46:08.074Z,57.44
2023-05-10T04:48:36.474Z,57.36
2023-05-10T04:51:05.813Z,56.20
2023-05-10T04:53:34.114Z,55.57
2023-05-10T04:56:02.295Z,52.18
2023-05-10T04:58:30.485Z,47.81
2023-05-10T05:01:07.191Z,45.17
2023-05-10T05:03:35.693Z,41.77
2023-05-10T05:06:04.328Z,41.29
2023-05-10T05:08:32.635Z,40.79
2023-05-10T05:11:01.286Z,40.64
2023-05-10T05:13:29.571Z,40.44
2023-05-10T05:15:59.319Z,41.10
2023-05-10T05:18:27.453Z,42.01
2023-05-10T05:20:55.530Z,42.92
2023-05-10T05:23:25.760Z,43.58
2023-05-10T05:25:54.392Z,44.25
2023-05-10T05:28:23.006Z,44.21
2023-05-10T05:30:51.164Z,44.57
2023-05-10T05:33:20.622Z,44.80
2023-05-10T05:35:51.616Z,44.90
2023-05-10T05:38:19.799Z,45.28
2023-05-10T05:40:47.971Z,45.43
2023-05-10T05:43:16.421Z,45.12
2023-05-10T05:45:44.602Z,45.26
2023-05-10T05:48:12.742Z,45.36
2023-05-10T05:50:42.193Z,45.26
2023-05-10T05:53:11.225Z,45.50
2023-05-10T05:55:39.362Z,45.08
2023-05-10T05:58:07.545Z,45.44
2023-05-10T06:00:36.152Z,45.82
2023-05-10T06:03:04.649Z,46.05
2023-05-10T06:05:32.797Z,46.45
2023-05-10T06:08:03.502Z,47.26
2023-05-10T06:10:31.793Z,47.50
2023-05-10T06:12:59.994Z,47.57
2023-05-10T06:15:28.793Z,48.08
2023-05-10T06:17:56.893Z,48.12
2023-05-10T06:20:24.990Z,47.97
2023-05-10T06:22:53.072Z,48.18
2023-05-10T06:25:22.642Z,47.66
2023-05-10T06:27:53.714Z,47.51
2023-05-10T06:30:24.075Z,47.67
2023-05-10T06:32:52.769Z,47.50
2023-05-10T06:35:20.992Z,47.76
2023-05-10T06:37:49.240Z,47.93
2023-05-10T06:40:19.233Z,47.34
2023-05-10T06:42:48.797Z,46.57
2023-05-10T06:45:18.283Z,45.81
2023-05-10T06:47:46.775Z,45.71
2023-05-10T06:50:15.204Z,44.60
2023-05-10T06:52:44.169Z,43.55
2023-05-10T06:55:12.731Z,43.69
2023-05-10T06:57:40.877Z,43.15
2023-05-10T07:00:11.661Z,43.36
2023-05-10T07:02:39.859Z,42.56
2023-05-10T07:05:08.730Z,42.96
2023-05-10T07:07:36.887Z,43.11
2023-05-10T07:10:05.723Z,43.45
2023-05-10T07:12:33.949Z,44.19
2023-05-10T07:15:02.151Z,44.05
2023-05-10T07:17:31.916Z,43.87
2023-05-10T07:20:00.174Z,44.47
2023-05-10T07:22:28.425Z,45.05
2023-05-10T07:24:56.966Z,45.05
2023-05-10T07:27:25.128Z,44.71
2023-05-10T07:29:53.369Z,44.65
2023-05-10T07:32:21.547Z,44.45
2023-05-10T07:34:51.158Z,44.67
2023-05-10T07:37:19.479Z,44.07
2023-05-10T07:39:47.625Z,43.92
2023-05-10T07:42:15.727Z,43.78
2023-05-10T07:44:44.280Z,43.37
2023-05-10T07:47:12.605Z,43.26
2023-05-10T07:49:40.861Z,42.56
2023-05-10T07:52:10.445Z,42.19
2023-05-10T07:54:38.860Z,42.36
2023-05-10T07:57:07.246Z,42.75
2023-05-10T07:59:35.412Z,42.84
2023-05-10T08:02:03.691Z,42.93
2023-05-10T08:04:31.895Z,43.21
2023-05-10T08:07:00.070Z,42.82
2023-05-10T08:09:29.580Z,44.03
2023-05-10T08:11:57.748Z,43.88
2023-05-10T08:14:25.841Z,44.31
2023-05-10T08:16:54.011Z,44.28
2023-05-10T08:19:22.449Z,44.09
2023-05-10T08:21:50.731Z,44.37
2023-05-10T08:24:18.844Z,44.26
2023-05-10T08:26:48.615Z,44.19
2023-05-10T08:29:16.987Z,44.12
2023-05-10T08:31:45.225Z,44.69
2023-05-10T08:34:14.523Z,45.91
2023-05-10T08:36:42.604Z,46.07
2023-05-10T08:39:22.806Z,46.75
2023-05-10T08:42:06.637Z,47.24
2023-05-10T08:44:37.255Z,46.32
2023-05-10T08:47:08.705Z,46.36
2023-05-10T08:49:39.221Z,46.27
2023-05-10T08:52:10.093Z,46.60
2023-05-10T08:54:40.044Z,48.05
2023-05-10T08:57:09.870Z,48.12
2023-05-10T08:59:40.302Z,49.36
2023-05-10T09:02:12.530Z,49.17
2023-05-10T09:04:40.898Z,49.16
2023-05-10T09:07:09.470Z,49.60
2023-05-10T09:09:39.045Z,49.69
2023-05-10T09:12:12.102Z,50.60
2023-05-10T09:14:41.297Z,51.66
2023-05-10T09:17:09.917Z,53.08
2023-05-10T09:19:38.099Z,55.26
2023-05-10T09:22:06.600Z,56.24
2023-05-10T09:24:34.709Z,56.78
2023-05-10T09:27:04.277Z,56.79
2023-05-10T09:29:44.572Z,58.94
2023-05-10T09:32:13.807Z,59.30
2023-05-10T09:34:43.234Z,60.30
2023-05-10T09:37:11.581Z,62.04
2023-05-10T09:39:42.252Z,64.10
2023-05-10T09:42:12.218Z,66.18
2023-05-10T09:44:44.329Z,68.36
2023-05-10T09:47:12.480Z,69.47
2023-05-10T09:49:41.194Z,70.15
2023-05-10T09:52:11.214Z,72.07
2023-05-10T09:54:53.987Z,71.84
2023-05-10T09:57:23.834Z,72.50
2023-05-10T09:59:55.244Z,72.26
2023-05-10T10:02:30.093Z,72.08
2023-05-10T10:04:58.370Z,71.53
2023-05-10T10:07:27.247Z,70.76
2023-05-10T10:09:55.773Z,71.22
2023-05-10T10:12:24.024Z,71.20
2023-05-10T10:14:53.750Z,70.20
2023-05-10T10:17:23.471Z,70.56
2023-05-10T10:19:51.815Z,70.85
2023-05-10T10:22:20.049Z,70.78
2023-05-10T10:24:48.194Z,69.52
2023-05-10T10:27:27.137Z,70.23
2023-05-10T10:30:08.702Z,70.47
2023-05-10T10:33:10.140Z,69.73
2023-05-10T10:35:42.335Z,70.56
2023-05-10T10:38:10.730Z,70.95
2023-05-10T10:40:39.453Z,71.04
2023-05-10T10:43:28.670Z,72.08
2023-05-10T10:46:21.757Z,72.32
2023-05-10T10:49:10.984Z,71.75
2023-05-10T10:51:39.724Z,71.32
2023-05-10T10:54:12.118Z,70.73
2023-05-10T10:56:40.478Z,70.87
2023-05-10T10:59:09.740Z,70.57
2023-05-10T11:01:45.375Z,71.43
2023-05-10T11:04:21.324Z,72.20
2023-05-10T11:06:49.586Z,71.70
2023-05-10T11:09:18.462Z,72.26
2023-05-10T11:11:56.122Z,72.83
2023-05-10T11:14:25.031Z,73.97
2023-05-10T11:16:54.759Z,74.38
2023-05-10T11:19:22.892Z,74.91
2023-05-10T11:21:54.730Z,75.24
2023-05-10T11:24:25.113Z,74.74
2023-05-10T11:26:53.477Z,75.67
2023-05-10T11:29:22.264Z,76.02
2023-05-10T11:31:51.636Z,76.14
2023-05-10T11:34:31.012Z,76.44
2023-05-10T11:36:59.776Z,76.50
2023-05-10T11:39:32.804Z,76.88
2023-05-10T11:42:01.877Z,76.65
2023-05-10T11:44:32.765Z,75.87
2023-05-10T11:47:01.983Z,75.21
2023-05-10T11:49:31.753Z,73.78
2023-05-10T11:52:07.612Z,72.11
2023-05-10T11:54:36.210Z,72.38
2023-05-10T11:57:04.919Z,71.10
2023-05-10T11:59:33.162Z,71.48
2023-05-10T12:02:01.661Z,71.73
2023-05-10T12:04:31.586Z,70.55
2023-05-10T12:06:59.939Z,70.99
2023-05-10T12:11:59.118Z,72.69
2023-05-10T12:14:27.275Z,73.15
2023-05-10T12:16:55.466Z,73.29
2023-05-10T12:19:23.652Z,72.76
2023-05-10T12:21:53.198Z,73.08
2023-05-10T12:24:22.500Z,72.04
2023-05-10T12:26:50.716Z,72.24
2023-05-10T12:29:21.000Z,70.85
2023-05-10T12:31:57.428Z,71.15
2023-05-10T12:34:27.779Z,71.93
2023-05-10T12:36:57.925Z,72.11
2023-05-10T12:39:26.394Z,72.62
2023-05-10T12:41:54.931Z,71.25
2023-05-10T12:44:23.311Z,70.06
2023-05-10T12:46:51.392Z,70.48
2023-05-10T12:49:20.535Z,70.41
2023-05-10T12:51:48.706Z,70.26
2023-05-10T12:54:18.217Z,70.04
2023-05-10T12:56:46.344Z,69.36
2023-05-10T12:59:14.444Z,70.27
2023-05-10T13:01:42.588Z,69.28
2023-05-10T13:04:10.808Z,69.43
2023-05-10T13:06:39.003Z,69.05
2023-05-10T13:09:07.173Z,69.43
2023-05-10T13:11:37.446Z,69.66
2023-05-10T13:14:05.591Z,70.03
2023-05-10T13:16:34.041Z,68.65
2023-05-10T13:19:02.297Z,68.50
2023-05-10T13:21:30.702Z,68.85
2023-05-10T13:23:59.006Z,68.73
2023-05-10T13:26:27.343Z,67.61
2023-05-10T13:28:57.441Z,68.37
2023-05-10T13:31:25.741Z,69.87
2023-05-10T13:33:53.944Z,69.71
2023-05-10T13:36:22.225Z,69.84
2023-05-10T13:38:50.338Z,69.04
2023-05-10T13:41:18.588Z,68.82
2023-05-10T13:43:46.785Z,69.98
2023-05-10T13:46:16.428Z,69.48
2023-05-10T13:48:44.576Z,69.07
2023-05-10T13:51:13.694Z,69.01
2023-05-10T13:53:42.422Z,68.43
2023-05-10T13:56:10.590Z,68.14
2023-05-10T13:58:38.731Z,67.64
2023-05-10T14:01:06.900Z,68.06
2023-05-10T14:03:36.547Z,69.00
2023-05-10T14:06:04.941Z,70.32
2023-05-10T14:08:33.113Z,70.87
2023-05-10T14:11:01.235Z,71.67
2023-05-10T14:13:29.651Z,72.43
2023-05-10T14:15:57.850Z,73.45
2023-05-10T14:18:26.814Z,75.09
2023-05-10T14:20:56.447Z,75.75
2023-05-10T14:23:26.710Z,76.54
2023-05-10T14:25:54.996Z,77.29
2023-05-10T14:28:24.597Z,78.22
2023-05-10T14:30:53.022Z,78.85
2023-05-10T14:33:21.787Z,79.50
2023-05-10T14:35:50.199Z,79.11
2023-05-10T14:38:19.806Z,79.15
2023-05-10T14:40:47.992Z,79.80
2023-05-10T14:43:16.217Z,80.41
2023-05-10T14:45:44.416Z,80.28
2023-05-10T14:48:16.322Z,80.36
2023-05-10T14:50:44.505Z,79.59
2023-05-10T14:53:12.744Z,79.06
2023-05-10T14:55:42.421Z,79.36
2023-05-10T14:58:10.624Z,79.71
2023-05-10T15:00:38.868Z,79.63
2023-05-10T15:03:07.716Z,78.64
2023-05-10T15:05:38.188Z,78.82
2023-05-10T15:08:06.883Z,79.30
2023-05-10T15:10:35.167Z,79.96
2023-05-10T15:13:05.788Z,80.46
2023-05-10T15:15:34.290Z,81.01
2023-05-10T15:18:02.557Z,81.20
2023-05-10T15:20:30.754Z,81.70
2023-05-10T15:22:58.868Z,81.83
2023-05-10T15:25:27.034Z,81.63
2023-05-10T15:27:55.529Z,81.76
2023-05-10T15:30:25.118Z,81.42
2023-05-10T15:32:53.314Z,82.45
2023-05-10T15:35:21.541Z,83.34
2023-05-10T15:37:50.311Z,83.82
2023-05-10T15:40:18.713Z,83.34
2023-05-10T15:42:46.868Z,84.23
2023-05-10T15:45:16.300Z,84.88
2023-05-10T15:47:46.335Z,84.92
2023-05-10T15:50:14.602Z,84.03
2023-05-10T15:52:43.248Z,85.29
2023-05-10T15:55:13.068Z,86.43
2023-05-10T15:57:42.386Z,86.71
2023-05-10T16:00:13.575Z,86.69
2023-05-10T16:02:41.949Z,86.02
2023-05-10T16:05:12.012Z,86.37
2023-05-10T16:07:41.667Z,86.44
2023-05-10T16:10:12.418Z,86.14
2023-05-10T16:12:40.931Z,86.64
2023-05-10T16:15:10.618Z,87.23
2023-05-10T16:17:38.836Z,86.69
2023-05-10T16:20:08.999Z,86.84
2023-05-10T16:22:38.808Z,87.05
2023-05-10T16:25:08.296Z,86.69
2023-05-10T16:27:36.455Z,84.65
2023-05-10T16:30:05.050Z,84.83
2023-05-10T16:32:33.398Z,85.20
2023-05-10T16:35:01.627Z,85.48
2023-05-10T16:37:30.152Z,85.63
2023-05-10T16:39:59.679Z,84.82
2023-05-10T16:42:28.936Z,84.15
2023-05-10T16:44:57.158Z,83.93
2023-05-10T16:47:26.835Z,84.10
2023-05-10T16:49:55.126Z,84.51
2023-05-10T16:52:23.780Z,84.24
2023-05-10T16:54:51.955Z,84.05
2023-05-10T16:57:21.436Z,84.26
2023-05-10T16:59:49.887Z,83.31
2023-05-10T17:02:18.077Z,83.54
2023-05-10T17:04:46.291Z,84.06
2023-05-10T17:07:15.092Z,84.03
2023-05-10T17:09:44.161Z,83.85
2023-05-10T17:12:12.476Z,83.89
2023-05-10T17:14:41.941Z,84.14
2023-05-10T17:17:10.140Z,83.98
2023-05-10T17:19:38.381Z,84.38
2023-05-10T17:22:06.635Z,84.78
2023-05-10T17:24:34.803Z,85.20
2023-05-10T17:27:03.577Z,85.73
2023-05-10T17:29:32.116Z,86.04
2023-05-10T17:32:02.014Z,86.03
2023-05-10T17:34:30.251Z,86.47
2023-05-10T17:36:58.627Z,86.73
2023-05-10T17:39:26.761Z,87.06
2023-05-10T17:41:54.947Z,87.56
2023-05-10T17:44:23.067Z,87.92
2023-05-10T17:46:51.214Z,88.34
2023-05-10T17:49:20.696Z,88.57
2023-05-10T17:51:48.974Z,88.83
2023-05-10T17:54:17.138Z,89.00
2023-05-10T17:56:45.336Z,88.85
2023-05-10T17:59:13.475Z,88.56
2023-05-10T18:01:42.285Z,89.08
2023-05-10T18:04:10.420Z,89.73
2023-05-10T18:06:40.590Z,90.28
2023-05-10T18:09:08.720Z,90.57
2023-05-10T18:11:38.569Z,90.92
2023-05-10T18:14:06.902Z,90.98
2023-05-10T18:16:35.042Z,91.23
2023-05-10T18:19:03.626Z,91.43
2023-05-10T18:21:32.642Z,91.71
2023-05-10T18:24:02.902Z,91.89
2023-05-10T18:26:31.515Z,91.94
2023-05-10T18:29:01.371Z,92.27
2023-05-10T18:31:30.040Z,92.55
2023-05-10T18:33:58.231Z,92.65
2023-05-10T18:36:28.142Z,92.83
2023-05-10T18:38:56.481Z,93.04
2023-05-10T18:41:26.745Z,92.91
2023-05-10T18:43:55.220Z,92.78
2023-05-10T18:46:24.074Z,92.92
2023-05-10T18:48:52.292Z,93.14
2023-05-10T18:51:21.053Z,93.40
2023-05-10T18:53:49.335Z,93.27
2023-05-10T18:56:17.521Z,93.18
2023-05-10T18:58:47.019Z,93.10
2023-05-10T19:01:15.290Z,93.27
2023-05-10T19:03:43.429Z,93.37
2023-05-10T19:06:12.510Z,93.55
2023-05-10T19:08:40.644Z,93.72
2023-05-10T19:11:08.765Z,93.81
2023-05-10T19:13:37.097Z,94.10
2023-05-10T19:16:12.812Z,93.87
2023-05-10T19:18:41.506Z,93.96
2023-05-10T19:21:11.154Z,94.19
2023-05-10T19:23:41.568Z,94.30
2023-05-10T19:26:10.923Z,94.54
2023-05-10T19:28:39.350Z,94.63
2023-05-10T19:31:09.530Z,94.63
2023-05-10T19:33:38.464Z,95.15
2023-05-10T19:36:09.203Z,95.56
2023-05-10T19:38:38.410Z,95.88
2023-05-10T19:41:06.548Z,96.42
2023-05-10T19:43:38.375Z,96.80
2023-05-10T19:46:09.673Z,96.84
2023-05-10T19:48:38.779Z,96.92
2023-05-10T19:51:09.907Z,97.17
2023-05-10T19:53:39.940Z,97.21
2023-05-10T19:56:08.792Z,97.51
2023-05-10T19:58:37.745Z,97.59
2023-05-10T20:01:07.721Z,97.38
2023-05-10T20:03:37.723Z,97.42
2023-05-10T20:06:06.083Z,97.46
2023-05-10T20:08:34.233Z,97.30
2023-05-10T20:11:03.717Z,97.35
2023-05-10T20:13:31.976Z,97.57
2023-05-10T20:16:02.124Z,97.73
2023-05-10T20:18:30.345Z,97.87
2023-05-10T20:21:01.961Z,97.76
2023-05-10T20:23:30.144Z,97.85
2023-05-10T20:25:58.345Z,98.16
2023-05-10T20:28:27.486Z,98.35
2023-05-10T20:30:57.394Z,98.41
2023-05-10T20:33:25.680Z,98.54
2023-05-10T20:35:53.813Z,98.52
2023-05-10T20:38:23.369Z,98.50
2023-05-10T20:40:51.830Z,98.55
2023-05-10T20:43:21.325Z,98.69
2023-05-10T20:45:49.829Z,98.66
2023-05-10T20:48:19.624Z,98.56
2023-05-10T20:50:47.923Z,98.77
2023-05-10T20:53:16.090Z,98.85
2023-05-10T20:55:45.561Z,98.95
2023-05-10T20:58:13.734Z,99.07
2023-05-10T21:00:41.900Z,99.02
2023-05-10T21:03:10.071Z,98.93
2023-05-10T21:05:38.197Z,98.77
2023-05-10T21:08:07.176Z,98.56
2023-05-10T21:10:35.321Z,97.91
2023-05-10T21:13:04.934Z,97.88
2023-05-10T21:15:33.090Z,97.89
2023-05-10T21:18:01.514Z,97.84
2023-05-10T21:20:30.486Z,97.82
2023-05-10T21:22:58.699Z,97.87
2023-05-10T21:25:26.991Z,98.09
2023-05-10T21:27:55.184Z,98.29
2023-05-10T21:30:24.946Z,98.19
2023-05-10T21:32:55.113Z,98.17
2023-05-10T21:35:23.279Z,97.41
2023-05-10T21:37:51.377Z,97.71
2023-05-10T21:40:20.229Z,97.79
2023-05-10T21:42:49.486Z,98.12
2023-05-10T21:45:18.087Z,98.25
2023-05-10T21:47:47.723Z,98.44
2023-05-10T21:50:15.975Z,98.57
2023-05-10T21:52:44.176Z,98.64
2023-05-10T21:55:12.294Z,98.96
2023-05-10T21:57:41.213Z,99.09
2023-05-10T22:00:11.477Z,99.12
2023-05-10T22:02:39.631Z,99.33
2023-05-10T22:05:10.427Z,99.45
2023-05-10T22:07:38.610Z,99.58
2023-05-10T22:10:08.360Z,99.58
2023-05-10T22:12:36.695Z,99.63
2023-05-10T22:17:36.785Z,99.99
2023-05-10T22:20:06.225Z,100.00
2023-05-10T22:22:36.490Z,100.00
2023-05-10T22:25:05.161Z,100.00
2023-05-10T22:27:33.260Z,100.00
2023-05-10T22:30:01.589Z,100.00
2023-05-10T22:32:29.845Z,100.00
2023-05-10T22:34:58.018Z,100.00
2023-05-10T22:37:26.152Z,100.00
2023-05-10T22:39:55.621Z,100.00
2023-05-10T22:42:23.728Z,100.00
2023-05-10T22:44:52.038Z,100.00
2023-05-10T22:47:20.128Z,100.00
2023-05-10T22:49:48.402Z,100.00
2023-05-10T22:52:16.484Z,100.00
2023-05-10T22:54:45.120Z,100.00
2023-05-10T22:57:15.019Z,100.00
2023-05-10T22:59:43.398Z,100.00
2023-05-10T23:02:11.700Z,100.00
2023-05-10T23:04:39.830Z,100.00
2023-05-10T23:07:07.994Z,100.00
2023-05-10T23:09:36.063Z,100.00
2023-05-10T23:12:04.358Z,100.00
2023-05-10T23:14:33.765Z,100.00
2023-05-10T23:17:01.917Z,100.00
2023-05-10T23:19:30.043Z,100.00
2023-05-10T23:21:59.310Z,100.00
2023-05-10T23:24:27.404Z,100.00
2023-05-10T23:26:55.569Z,100.00
2023-05-10T23:29:26.176Z,100.00
2023-05-10T23:31:55.802Z,100.00
2023-05-10T23:34:23.998Z,100.00
2023-05-10T23:36:52.074Z,100.00
2023-05-10T23:39:20.164Z,100.00
2023-05-10T23:41:48.241Z,100.00
2023-05-10T23:44:16.629Z,100.00
2023-05-10T23:46:44.736Z,100.00
2023-05-10T23:49:14.195Z,100.00
2023-05-10T23:51:42.282Z,100.00
2023-05-10T23:54:10.448Z,100.00
2023-05-10T23:56:38.581Z,100.00
2023-05-10T23:59:06.690Z,100.00
